createdAt,value
2023-02-28T00:00:38.248Z,102819.28
2023-02-28T00:03:05.115Z,102827.25
2023-02-28T00:05:31.892Z,102819.38
2023-02-28T00:07:58.527Z,102827.13
2023-02-28T00:10:28.367Z,102828.00
2023-02-28T00:12:57.836Z,102823.13
2023-02-28T00:15:24.748Z,102825.59
2023-02-28T00:17:51.498Z,102821.50
2023-02-28T00:20:18.488Z,102820.72
2023-02-28T00:22:46.952Z,102815.31
2023-02-28T00:25:16.094Z,102821.34
2023-02-28T00:27:42.932Z,102813.69
2023-02-28T00:30:13.594Z,102817.13
2023-02-28T00:32:40.172Z,102810.13
2023-02-28T00:35:07.714Z,102819.81
2023-02-28T00:37:34.339Z,102828.69
2023-02-28T00:40:00.941Z,102821.91
2023-02-28T00:42:27.623Z,102822.78
2023-02-28T00:44:55.394Z,102820.16
2023-02-28T00:47:21.985Z,102818.28
2023-02-28T00:49:48.706Z,102818.16
2023-02-28T00:52:15.264Z,102819.22
2023-02-28T00:54:41.995Z,102821.00
2023-02-28T00:57:08.650Z,102825.53
2023-02-28T00:59:35.288Z,102820.03
2023-02-28T01:02:01.836Z,102819.22
2023-02-28T01:04:28.521Z,102823.63
2023-02-28T01:06:55.117Z,102823.69
2023-02-28T01:09:21.673Z,102824.34
2023-02-28T01:11:48.305Z,102822.75
2023-02-28T01:14:16.905Z,102823.00
2023-02-28T01:16:45.206Z,102819.69
2023-02-28T01:19:11.882Z,102816.91
2023-02-28T01:21:39.136Z,102817.72
2023-02-28T01:24:06.617Z,102813.22
2023-02-28T01:26:33.261Z,102820.38
2023-02-28T01:29:00.135Z,102803.50
2023-02-28T01:31:27.309Z,102804.44
2023-02-28T01:33:54.123Z,102805.38
2023-02-28T01:36:22.939Z,102800.75
2023-02-28T01:38:49.703Z,102809.31
2023-02-28T01:41:19.394Z,102807.44
2023-02-28T01:43:45.903Z,102804.25
2023-02-28T01:46:13.407Z,102801.50
2023-02-28T01:48:43.986Z,102797.03
2023-02-28T01:51:16.974Z,102796.03
2023-02-28T01:53:48.306Z,102807.28
2023-02-28T01:56:21.659Z,102797.31
2023-02-28T01:58:50.395Z,102798.44
2023-02-28T02:01:22.463Z,102812.44
2023-02-28T02:03:57.380Z,102809.91
2023-02-28T02:06:36.797Z,102810.88
2023-02-28T02:09:04.048Z,102816.19
2023-02-28T02:11:31.298Z,102812.34
2023-02-28T02:14:31.564Z,102805.47
2023-02-28T02:17:16.017Z,102800.13
2023-02-28T02:20:07.741Z,102809.66
2023-02-28T02:23:03.845Z,102811.47
2023-02-28T02:25:41.488Z,102810.75
2023-02-28T02:28:43.960Z,102803.38
2023-02-28T02:31:31.122Z,102806.00
2023-02-28T02:34:20.052Z,102801.56
2023-02-28T02:36:54.820Z,102809.19
2023-02-28T02:39:53.582Z,102808.03
2023-02-28T02:42:27.933Z,102798.41
2023-02-28T02:45:02.332Z,102805.25
2023-02-28T02:47:30.968Z,102803.34
2023-02-28T02:49:59.749Z,102805.03
2023-02-28T02:52:34.919Z,102806.72
2023-02-28T02:55:03.553Z,102810.03
2023-02-28T02:57:35.564Z,102809.81
2023-02-28T03:00:06.072Z,102804.28
2023-02-28T03:02:35.459Z,102803.31
2023-02-28T03:05:06.265Z,102795.22
2023-02-28T03:07:32.817Z,102803.78
2023-02-28T03:09:59.526Z,102806.34
2023-02-28T03:12:36.934Z,102799.97
2023-02-28T03:15:09.831Z,102809.53
2023-02-28T03:17:51.605Z,102807.28
2023-02-28T03:20:37.290Z,102804.25
2023-02-28T03:23:20.725Z,102820.00
2023-02-28T03:25:58.070Z,102818.13
2023-02-28T03:28:33.984Z,102819.88
2023-02-28T03:31:24.521Z,102817.75
2023-02-28T03:34:02.911Z,102834.38
2023-02-28T03:36:45.029Z,102824.84
2023-02-28T03:39:24.480Z,102833.06
2023-02-28T03:41:55.327Z,102830.97
2023-02-28T03:44:39.412Z,102828.91
2023-02-28T03:47:18.870Z,102836.78
2023-02-28T03:49:57.306Z,102839.56
2023-02-28T03:52:28.382Z,102834.69
2023-02-28T03:54:58.105Z,102829.38
2023-02-28T03:57:43.991Z,102838.38
2023-02-28T04:00:18.918Z,102833.84
2023-02-28T04:02:46.198Z,102837.50
2023-02-28T04:05:12.753Z,102827.97
2023-02-28T04:07:39.390Z,102827.03
2023-02-28T04:10:06.492Z,102827.81
2023-02-28T04:12:33.056Z,102836.63
2023-02-28T04:14:59.624Z,102830.34
2023-02-28T04:17:26.304Z,102831.00
2023-02-28T04:19:53.043Z,102834.34
2023-02-28T04:22:19.723Z,102837.09
2023-02-28T04:24:46.399Z,102839.53
2023-02-28T04:27:13.021Z,102836.06
2023-02-28T04:29:39.619Z,102832.47
2023-02-28T04:32:06.373Z,102828.66
2023-02-28T04:34:33.760Z,102841.84
2023-02-28T04:37:16.957Z,102849.66
2023-02-28T04:39:44.030Z,102833.72
2023-02-28T04:42:10.910Z,102839.84
2023-02-28T04:44:37.527Z,102848.50
2023-02-28T04:47:04.080Z,102851.94
2023-02-28T04:49:30.756Z,102846.53
2023-02-28T04:51:57.312Z,102848.94
2023-02-28T04:54:23.897Z,102855.97
2023-02-28T04:56:51.000Z,102854.84
2023-02-28T04:59:17.670Z,102860.06
2023-02-28T05:01:47.920Z,102859.94
2023-02-28T05:04:14.668Z,102852.84
2023-02-28T05:06:41.214Z,102860.81
2023-02-28T05:09:07.805Z,102852.75
2023-02-28T05:11:39.731Z,102863.19
2023-02-28T05:14:10.101Z,102856.88
2023-02-28T05:16:36.657Z,102859.41
2023-02-28T05:19:03.381Z,102854.78
2023-02-28T05:21:32.788Z,102857.50
2023-02-28T05:24:01.618Z,102856.47
2023-02-28T05:26:29.089Z,102859.00
2023-02-28T05:28:55.957Z,102866.69
2023-02-28T05:31:22.905Z,102860.53
2023-02-28T05:33:49.558Z,102863.09
2023-02-28T05:36:16.195Z,102869.81
2023-02-28T05:38:42.819Z,102862.94
2023-02-28T05:41:10.653Z,102879.59
2023-02-28T05:43:38.152Z,102867.91
2023-02-28T05:46:06.722Z,102879.59
2023-02-28T05:48:35.458Z,102869.91
2023-02-28T05:51:03.572Z,102873.22
2023-02-28T05:53:30.654Z,102889.03
2023-02-28T05:55:57.433Z,102885.53
2023-02-28T05:58:24.360Z,102889.56
2023-02-28T06:00:50.913Z,102885.19
2023-02-28T06:03:17.449Z,102883.66
2023-02-28T06:05:44.033Z,102892.44
2023-02-28T06:08:10.643Z,102892.13
2023-02-28T06:10:37.191Z,102896.47
2023-02-28T06:13:04.859Z,102893.84
2023-02-28T06:15:31.848Z,102893.03
2023-02-28T06:17:58.494Z,102893.16
2023-02-28T06:20:27.143Z,102885.53
2023-02-28T06:22:55.472Z,102898.56
2023-02-28T06:25:22.023Z,102897.66
2023-02-28T06:27:49.437Z,102895.78
2023-02-28T06:30:16.061Z,102896.56
2023-02-28T06:32:42.660Z,102900.84
2023-02-28T06:35:09.477Z,102896.34
2023-02-28T06:37:36.118Z,102911.59
2023-02-28T06:40:02.880Z,102912.34
2023-02-28T06:42:31.838Z,102916.63
2023-02-28T06:44:58.843Z,102921.91
2023-02-28T06:47:25.584Z,102919.38
2023-02-28T06:49:52.209Z,102919.38
2023-02-28T06:52:18.789Z,102925.72
2023-02-28T06:54:45.337Z,102922.50
2023-02-28T06:57:12.011Z,102925.81
2023-02-28T06:59:38.566Z,102930.41
2023-02-28T07:02:07.479Z,102924.97
2023-02-28T07:04:34.182Z,102926.97
2023-02-28T07:07:00.804Z,102924.34
2023-02-28T07:09:31.006Z,102932.50
2023-02-28T07:11:57.626Z,102927.41
2023-02-28T07:14:24.208Z,102926.69
2023-02-28T07:16:51.444Z,102932.91
2023-02-28T07:19:18.016Z,102937.56
2023-02-28T07:21:44.607Z,102935.91
2023-02-28T07:24:11.482Z,102936.13
2023-02-28T07:26:38.040Z,102938.81
2023-02-28T07:29:05.597Z,102926.66
2023-02-28T07:31:32.581Z,102931.00
2023-02-28T07:33:59.527Z,102927.84
2023-02-28T07:36:27.140Z,102928.53
2023-02-28T07:38:54.259Z,102939.38
2023-02-28T07:41:22.331Z,102926.19
2023-02-28T07:43:49.194Z,102930.59
2023-02-28T07:46:16.696Z,102940.28
2023-02-28T07:48:44.585Z,102927.81
2023-02-28T07:51:11.169Z,102923.50
2023-02-28T07:53:37.733Z,102933.47
2023-02-28T07:56:04.995Z,102932.00
2023-02-28T07:58:31.880Z,102931.84
2023-02-28T08:00:59.071Z,102937.34
2023-02-28T08:03:26.103Z,102927.56
2023-02-28T08:05:53.722Z,102935.59
2023-02-28T08:08:20.279Z,102930.25
2023-02-28T08:10:46.901Z,102931.91
2023-02-28T08:13:13.456Z,102937.19
2023-02-28T08:15:42.273Z,102939.97
2023-02-28T08:18:12.192Z,102936.56
2023-02-28T08:20:38.873Z,102928.84
2023-02-28T08:23:05.441Z,102940.47
2023-02-28T08:25:31.984Z,102934.47
2023-02-28T08:27:58.554Z,102932.94
2023-02-28T08:30:26.282Z,102931.31
2023-02-28T08:32:53.062Z,102932.34
2023-02-28T08:35:19.763Z,102935.75
2023-02-28T08:37:49.420Z,102940.84
2023-02-28T08:40:19.184Z,102936.97
2023-02-28T08:42:46.755Z,102939.25
2023-02-28T08:45:14.550Z,102933.72
2023-02-28T08:47:41.682Z,102935.38
2023-02-28T08:50:09.163Z,102918.84
2023-02-28T08:52:35.827Z,102935.28
2023-02-28T08:55:02.450Z,102923.59
2023-02-28T08:57:29.053Z,102922.34
2023-02-28T08:59:55.668Z,102932.69
2023-02-28T09:02:22.238Z,102920.06
2023-02-28T09:04:48.866Z,102927.75
2023-02-28T09:07:15.452Z,102921.09
2023-02-28T09:09:54.656Z,102913.66
2023-02-28T09:12:28.364Z,102924.91
2023-02-28T09:14:55.036Z,102931.31
2023-02-28T09:17:21.705Z,102933.41
2023-02-28T09:19:51.314Z,102931.88
2023-02-28T09:22:17.970Z,102925.72
2023-02-28T09:24:45.830Z,102921.41
2023-02-28T09:27:12.645Z,102924.25
2023-02-28T09:29:40.202Z,102932.25
2023-02-28T09:32:07.044Z,102923.56
2023-02-28T09:34:34.183Z,102922.75
2023-02-28T09:37:00.971Z,102925.31
2023-02-28T09:39:27.987Z,102912.06
2023-02-28T09:41:55.462Z,102918.63
2023-02-28T09:44:43.797Z,102920.41
2023-02-28T09:47:22.662Z,102919.69
2023-02-28T09:49:49.964Z,102919.78
2023-02-28T09:52:23.068Z,102918.00
2023-02-28T09:54:49.743Z,102918.63
2023-02-28T09:57:47.265Z,102918.91
2023-02-28T10:00:21.871Z,102912.69
2023-02-28T10:03:13.331Z,102923.34
2023-02-28T10:05:44.860Z,102920.69
2023-02-28T10:08:15.747Z,102921.56
2023-02-28T10:10:50.539Z,102915.34
2023-02-28T10:13:35.211Z,102923.31
2023-02-28T10:16:12.633Z,102917.13
2023-02-28T10:18:44.680Z,102926.00
2023-02-28T10:21:20.714Z,102915.28
2023-02-28T10:23:48.928Z,102913.44
2023-02-28T10:26:18.912Z,102908.91
2023-02-28T10:28:46.264Z,102912.50
2023-02-28T10:31:17.868Z,102916.06
2023-02-28T10:33:45.150Z,102912.56
2023-02-28T10:36:16.141Z,102915.88
2023-02-28T10:38:43.900Z,102913.81
2023-02-28T10:41:31.571Z,102918.63
2023-02-28T10:44:16.193Z,102922.66
2023-02-28T10:46:43.587Z,102913.63
2023-02-28T10:49:41.537Z,102906.41
2023-02-28T10:52:10.572Z,102909.03
2023-02-28T10:54:38.877Z,102906.00
2023-02-28T10:57:25.520Z,102911.09
2023-02-28T10:59:53.727Z,102906.16
2023-02-28T11:02:36.067Z,102917.69
2023-02-28T11:05:03.435Z,102899.13
2023-02-28T11:07:37.386Z,102896.63
2023-02-28T11:10:10.127Z,102892.09
2023-02-28T11:12:47.049Z,102896.00
2023-02-28T11:15:21.591Z,102889.16
2023-02-28T11:18:12.869Z,102892.28
2023-02-28T11:20:39.805Z,102886.97
2023-02-28T11:23:13.293Z,102881.84
2023-02-28T11:25:40.132Z,102862.53
2023-02-28T11:28:23.414Z,102881.75
2023-02-28T11:31:16.803Z,102868.38
2023-02-28T11:33:53.018Z,102866.25
2023-02-28T11:36:28.768Z,102862.84
2023-02-28T11:38:58.785Z,102854.63
2023-02-28T11:41:49.682Z,102856.75
2023-02-28T11:44:22.584Z,102852.09
2023-02-28T11:46:52.234Z,102856.09
2023-02-28T11:49:35.327Z,102852.41
2023-02-28T11:52:09.742Z,102850.44
2023-02-28T11:54:50.137Z,102852.22
2023-02-28T11:57:28.741Z,102864.75
2023-02-28T12:00:07.438Z,102861.34
2023-02-28T12:03:04.419Z,102860.13
2023-02-28T12:05:44.833Z,102861.88
2023-02-28T12:08:24.622Z,102865.16
2023-02-28T12:11:16.004Z,102846.72
2023-02-28T12:14:00.752Z,102849.75
2023-02-28T12:16:39.109Z,102855.56
2023-02-28T12:19:24.189Z,102844.03
2023-02-28T12:22:14.297Z,102851.28
2023-02-28T12:25:08.218Z,102846.00
2023-02-28T12:27:38.358Z,102855.78
2023-02-28T12:30:21.078Z,102852.97
2023-02-28T12:33:07.604Z,102847.78
2023-02-28T12:35:39.339Z,102842.44
2023-02-28T12:38:11.360Z,102848.50
2023-02-28T12:41:05.781Z,102830.25
2023-02-28T12:43:36.366Z,102829.88
2023-02-28T12:46:12.543Z,102815.47
2023-02-28T12:48:43.686Z,102805.41
2023-02-28T12:51:10.699Z,102812.88
2023-02-28T12:53:51.405Z,102810.19
2023-02-28T12:56:24.231Z,102799.91
2023-02-28T12:58:57.053Z,102800.19
2023-02-28T13:01:33.885Z,102784.84
2023-02-28T13:04:34.968Z,102779.00
2023-02-28T13:07:39.607Z,102789.13
2023-02-28T13:10:08.639Z,102787.00
2023-02-28T13:12:36.314Z,102783.75
2023-02-28T13:15:22.376Z,102781.88
2023-02-28T13:17:50.696Z,102775.38
2023-02-28T13:20:29.215Z,102769.78
2023-02-28T13:22:58.159Z,102776.28
2023-02-28T13:25:33.938Z,102783.81
2023-02-28T13:28:05.166Z,102786.41
2023-02-28T13:30:54.296Z,102779.16
2023-02-28T13:33:29.797Z,102772.09
2023-02-28T13:36:14.887Z,102774.75
2023-02-28T13:38:43.550Z,102774.91
2023-02-28T13:41:32.931Z,102779.91
2023-02-28T13:44:14.554Z,102772.03
2023-02-28T13:46:50.309Z,102766.00
2023-02-28T13:49:26.024Z,102773.94
2023-02-28T13:51:54.010Z,102761.91
2023-02-28T13:54:56.980Z,102766.91
2023-02-28T13:58:01.266Z,102754.47
2023-02-28T14:00:30.805Z,102751.53
2023-02-28T14:03:25.593Z,102754.75
2023-02-28T14:06:10.973Z,102750.06
2023-02-28T14:08:37.834Z,102742.78
2023-02-28T14:11:07.993Z,102753.22
2023-02-28T14:13:46.267Z,102740.22
2023-02-28T14:16:19.416Z,102745.53
2023-02-28T14:18:52.294Z,102740.00
2023-02-28T14:21:26.629Z,102748.22
2023-02-28T14:24:09.530Z,102752.78
2023-02-28T14:26:57.771Z,102762.72
2023-02-28T14:29:34.135Z,102753.94
2023-02-28T14:32:04.135Z,102764.53
2023-02-28T14:34:57.156Z,102750.03
2023-02-28T14:37:31.754Z,102756.28
2023-02-28T14:39:59.127Z,102750.72
2023-02-28T14:42:45.096Z,102750.75
2023-02-28T14:45:20.384Z,102746.84
2023-02-28T14:47:47.362Z,102753.13
2023-02-28T14:50:22.846Z,102754.50
2023-02-28T14:52:53.289Z,102745.47
2023-02-28T14:55:24.441Z,102742.97
2023-02-28T14:58:07.492Z,102743.72
2023-02-28T15:00:38.497Z,102738.47
2023-02-28T15:03:40.180Z,102745.97
2023-02-28T15:06:14.190Z,102748.19
2023-02-28T15:08:40.908Z,102736.25
2023-02-28T15:11:22.271Z,102741.59
2023-02-28T15:13:57.499Z,102732.13
2023-02-28T15:16:29.852Z,102742.09
2023-02-28T15:19:09.052Z,102740.38
2023-02-28T15:21:37.567Z,102741.81
2023-02-28T15:24:07.158Z,102737.47
2023-02-28T15:26:35.603Z,102730.53
2023-02-28T15:29:09.583Z,102737.34
2023-02-28T15:31:56.099Z,102731.44
2023-02-28T15:34:43.083Z,102723.25
2023-02-28T15:37:48.936Z,102729.19
2023-02-28T15:40:27.972Z,102726.34
2023-02-28T15:43:04.618Z,102716.16
2023-02-28T15:45:50.171Z,102727.06
2023-02-28T15:48:21.300Z,102729.56
2023-02-28T15:50:51.119Z,102733.28
2023-02-28T15:53:20.980Z,102732.41
2023-02-28T15:55:54.634Z,102730.72
2023-02-28T15:58:22.991Z,102728.75
2023-02-28T16:01:02.721Z,102735.78
2023-02-28T16:03:39.700Z,102732.66
2023-02-28T16:06:35.571Z,102734.94
2023-02-28T16:09:02.549Z,102734.66
2023-02-28T16:11:29.458Z,102738.34
2023-02-28T16:13:56.353Z,102724.81
2023-02-28T16:16:25.919Z,102742.47
2023-02-28T16:18:52.938Z,102746.34
2023-02-28T16:21:19.622Z,102739.78
2023-02-28T16:23:46.240Z,102741.97
2023-02-28T16:26:21.109Z,102745.56
2023-02-28T16:28:47.748Z,102750.78
2023-02-28T16:31:17.669Z,102745.41
2023-02-28T16:33:45.842Z,102746.31
2023-02-28T16:36:19.021Z,102739.19
2023-02-28T16:38:45.895Z,102751.44
2023-02-28T16:41:20.647Z,102750.31
2023-02-28T16:43:50.119Z,102746.63
2023-02-28T16:46:17.883Z,102748.34
2023-02-28T16:48:45.837Z,102751.69
2023-02-28T16:51:13.922Z,102752.38
2023-02-28T16:53:40.558Z,102738.84
2023-02-28T16:56:07.933Z,102741.28
2023-02-28T16:58:36.701Z,102750.97
2023-02-28T17:01:04.168Z,102755.16
2023-02-28T17:03:33.532Z,102745.16
2023-02-28T17:06:00.618Z,102751.97
2023-02-28T17:08:29.836Z,102754.53
2023-02-28T17:10:56.630Z,102757.72
2023-02-28T17:13:23.312Z,102748.69
2023-02-28T17:15:49.962Z,102760.19
2023-02-28T17:18:22.280Z,102757.19
2023-02-28T17:20:49.499Z,102762.22
2023-02-28T17:23:17.022Z,102763.75
2023-02-28T17:25:57.550Z,102767.88
2023-02-28T17:28:24.654Z,102767.72
2023-02-28T17:30:51.508Z,102770.22
2023-02-28T17:33:18.520Z,102773.50
2023-02-28T17:35:45.102Z,102775.97
2023-02-28T17:38:16.835Z,102776.59
2023-02-28T17:40:43.572Z,102771.97
2023-02-28T17:43:10.169Z,102784.16
2023-02-28T17:45:37.306Z,102783.13
2023-02-28T17:48:04.267Z,102781.13
2023-02-28T17:50:30.843Z,102766.88
2023-02-28T17:52:57.493Z,102775.41
2023-02-28T17:55:24.112Z,102780.53
2023-02-28T17:57:50.797Z,102787.44
2023-02-28T18:00:18.459Z,102780.34
2023-02-28T18:02:45.643Z,102779.28
2023-02-28T18:05:12.481Z,102781.75
2023-02-28T18:07:39.661Z,102775.28
2023-02-28T18:10:08.632Z,102777.63
2023-02-28T18:12:35.194Z,102779.06
2023-02-28T18:15:01.868Z,102793.88
2023-02-28T18:17:28.441Z,102789.44
2023-02-28T18:19:55.055Z,102781.28
2023-02-28T18:22:21.662Z,102793.72
2023-02-28T18:24:48.293Z,102777.66
2023-02-28T18:27:14.845Z,102776.44
2023-02-28T18:29:42.048Z,102790.47
2023-02-28T18:32:09.986Z,102784.16
2023-02-28T18:34:36.835Z,102787.34
2023-02-28T18:37:03.646Z,102796.78
2023-02-28T18:39:30.831Z,102796.72
2023-02-28T18:41:57.455Z,102797.72
2023-02-28T18:44:24.160Z,102799.09
2023-02-28T18:46:51.221Z,102799.06
2023-02-28T18:49:18.400Z,102799.78
2023-02-28T18:51:46.494Z,102798.66
2023-02-28T18:54:13.973Z,102806.75
2023-02-28T18:56:40.772Z,102811.13
2023-02-28T18:59:07.623Z,102816.47
2023-02-28T19:01:34.670Z,102814.56
2023-02-28T19:04:03.647Z,102813.56
2023-02-28T19:06:31.789Z,102807.34
2023-02-28T19:09:01.039Z,102812.56
2023-02-28T19:11:28.177Z,102812.56
2023-02-28T19:13:54.775Z,102808.78
2023-02-28T19:16:22.388Z,102804.34
2023-02-28T19:18:49.226Z,102805.13
2023-02-28T19:21:17.403Z,102803.97
2023-02-28T19:23:44.497Z,102798.53
2023-02-28T19:26:14.632Z,102810.03
2023-02-28T19:28:41.547Z,102790.44
2023-02-28T19:31:13.991Z,102799.25
2023-02-28T19:33:41.012Z,102804.34
2023-02-28T19:36:08.654Z,102808.72
2023-02-28T19:38:35.213Z,102811.97
2023-02-28T19:41:03.122Z,102808.56
2023-02-28T19:43:30.300Z,102822.38
2023-02-28T19:45:56.938Z,102820.34
2023-02-28T19:48:26.352Z,102817.56
2023-02-28T19:51:03.868Z,102819.41
2023-02-28T19:53:31.266Z,102817.69
2023-02-28T19:55:58.160Z,102812.38
2023-02-28T19:58:24.805Z,102817.34
2023-02-28T20:00:51.457Z,102803.94
2023-02-28T20:03:21.109Z,102807.50
2023-02-28T20:05:47.922Z,102821.28
2023-02-28T20:08:15.015Z,102816.13
2023-02-28T20:10:41.688Z,102805.59
2023-02-28T20:13:08.745Z,102804.72
2023-02-28T20:15:36.546Z,102805.72
2023-02-28T20:18:03.461Z,102808.06
2023-02-28T20:20:30.304Z,102816.78
2023-02-28T20:22:56.896Z,102826.41
2023-02-28T20:25:23.558Z,102818.59
2023-02-28T20:27:50.138Z,102807.66
2023-02-28T20:30:16.836Z,102807.63
2023-02-28T20:32:43.925Z,102818.22
2023-02-28T20:35:11.716Z,102820.78
2023-02-28T20:37:40.220Z,102813.84
2023-02-28T20:40:08.028Z,102818.16
2023-02-28T20:42:34.800Z,102811.00
2023-02-28T20:45:01.374Z,102804.75
2023-02-28T20:47:28.041Z,102801.94
2023-02-28T20:49:54.800Z,102794.72
2023-02-28T20:52:21.364Z,102794.72
2023-02-28T20:54:47.916Z,102791.22
2023-02-28T20:57:15.050Z,102793.84
2023-02-28T20:59:42.070Z,102793.91
2023-02-28T21:02:11.799Z,102799.81
2023-02-28T21:04:38.383Z,102791.88
2023-02-28T21:07:04.951Z,102780.41
2023-02-28T21:09:31.530Z,102793.47
2023-02-28T21:11:58.123Z,102786.47
2023-02-28T21:14:25.451Z,102787.25
2023-02-28T21:16:52.063Z,102786.94
2023-02-28T21:19:18.997Z,102790.59
2023-02-28T21:21:47.883Z,102792.31
2023-02-28T21:24:16.514Z,102787.84
2023-02-28T21:26:45.053Z,102788.41
2023-02-28T21:29:12.638Z,102785.88
2023-02-28T21:31:39.611Z,102789.44
2023-02-28T21:34:08.651Z,102792.72
2023-02-28T21:36:37.822Z,102795.09
2023-02-28T21:39:12.643Z,102793.56
2023-02-28T21:41:39.230Z,102793.50
2023-02-28T21:44:05.820Z,102796.03
2023-02-28T21:46:32.884Z,102793.28
2023-02-28T21:48:59.952Z,102794.06
2023-02-28T21:51:33.522Z,102794.88
2023-02-28T21:54:01.133Z,102797.41
2023-02-28T21:56:30.689Z,102795.53
2023-02-28T21:59:00.924Z,102798.03
2023-02-28T22:01:36.863Z,102804.25
2023-02-28T22:04:05.782Z,102806.63
2023-02-28T22:06:35.561Z,102804.75
2023-02-28T22:09:06.116Z,102799.63
2023-02-28T22:11:34.814Z,102809.03
2023-02-28T22:14:01.465Z,102802.72
2023-02-28T22:16:33.183Z,102806.06
2023-02-28T22:19:06.504Z,102807.84
2023-02-28T22:21:34.645Z,102813.09
2023-02-28T22:24:02.238Z,102809.59
2023-02-28T22:26:29.178Z,102814.00
2023-02-28T22:28:55.986Z,102817.38
2023-02-28T22:31:25.555Z,102806.72
2023-02-28T22:33:54.613Z,102812.91
2023-02-28T22:36:21.370Z,102804.72
2023-02-28T22:38:48.822Z,102811.72
2023-02-28T22:41:16.048Z,102819.31
2023-02-28T22:43:42.881Z,102818.38
2023-02-28T22:46:12.500Z,102822.06
2023-02-28T22:48:40.369Z,102825.59
2023-02-28T22:51:12.655Z,102822.75
2023-02-28T22:53:39.698Z,102825.28
2023-02-28T22:56:07.083Z,102825.28
2023-02-28T22:58:33.668Z,102822.44
2023-02-28T23:01:10.663Z,102818.84
2023-02-28T23:03:38.102Z,102825.84
2023-02-28T23:06:24.590Z,102831.25
2023-02-28T23:08:53.179Z,102835.44
2023-02-28T23:11:22.307Z,102843.94
2023-02-28T23:13:58.592Z,102839.47
2023-02-28T23:16:37.342Z,102842.84
2023-02-28T23:19:06.829Z,102846.41
2023-02-28T23:21:34.433Z,102849.63
2023-02-28T23:24:02.885Z,102852.09
2023-02-28T23:26:31.457Z,102850.59
2023-02-28T23:28:58.618Z,102855.84
2023-02-28T23:31:25.417Z,102850.66
2023-02-28T23:33:52.153Z,102864.72
2023-02-28T23:36:18.808Z,102844.59
2023-02-28T23:38:49.709Z,102844.03
2023-02-28T23:41:17.536Z,102850.25
2023-02-28T23:43:44.336Z,102848.31
2023-02-28T23:46:12.186Z,102854.38
2023-02-28T23:48:38.941Z,102852.13
2023-02-28T23:51:08.840Z,102851.53
2023-02-28T23:53:37.272Z,102844.94
2023-02-28T23:56:04.393Z,102835.38
2023-02-28T23:58:31.083Z,102835.38
